createdAt,value
2023-01-06T00:00:19.265Z,5.5
2023-01-06T00:01:21.213Z,5.5
2023-01-06T00:02:23.205Z,5.5
2023-01-06T00:03:25.212Z,5.5
2023-01-06T00:04:27.220Z,5.5
2023-01-06T00:05:29.217Z,5.5
2023-01-06T00:06:31.360Z,5.5
2023-01-06T00:07:33.175Z,5.5
2023-01-06T00:08:36.187Z,5.5
2023-01-06T00:09:38.224Z,5.5
2023-01-06T00:10:40.175Z,5.5
2023-01-06T00:11:42.191Z,5.5
2023-01-06T00:12:44.177Z,5.5
2023-01-06T00:13:46.198Z,5.5
2023-01-06T00:14:49.217Z,5.5
2023-01-06T00:15:51.364Z,5.5
2023-01-06T00:16:53.185Z,5.5
2023-01-06T00:17:55.186Z,5.5
2023-01-06T00:18:57.178Z,5.5
2023-01-06T00:19:59.200Z,5.5
2023-01-06T00:21:01.218Z,5.5
2023-01-06T00:22:03.193Z,5.6
2023-01-06T00:23:05.177Z,5.6
2023-01-06T00:24:07.187Z,5.7
2023-01-06T00:25:09.187Z,5.7
2023-01-06T00:26:11.202Z,5.7
2023-01-06T00:27:13.244Z,5.6
2023-01-06T00:28:15.192Z,5.6
2023-01-06T00:29:17.188Z,5.6
2023-01-06T00:30:19.173Z,5.6
2023-01-06T00:31:22.278Z,5.6
2023-01-06T00:32:24.208Z,5.6
2023-01-06T00:33:26.192Z,5.6
2023-01-06T00:34:29.194Z,5.6
2023-01-06T00:35:31.196Z,5.6
2023-01-06T00:36:33.210Z,5.5
2023-01-06T00:37:35.381Z,5.5
2023-01-06T00:38:37.207Z,5.5
2023-01-06T00:39:39.196Z,5.6
2023-01-06T00:40:42.194Z,5.6
2023-01-06T00:42:23.454Z,5.6
2023-01-06T00:43:23.457Z,5.6
2023-01-06T00:44:23.446Z,5.6
2023-01-06T00:45:23.450Z,5.6
2023-01-06T00:46:23.568Z,5.5
2023-01-06T00:47:23.444Z,5.5
2023-01-06T00:48:23.488Z,5.5
2023-01-06T00:49:23.463Z,5.5
2023-01-06T00:50:23.456Z,5.5
2023-01-06T00:51:23.452Z,5.5
2023-01-06T00:52:23.463Z,5.5
2023-01-06T00:53:23.474Z,5.5
2023-01-06T00:54:23.455Z,5.5
2023-01-06T00:55:23.456Z,5.5
2023-01-06T00:56:23.462Z,5.5
2023-01-06T00:57:23.458Z,5.5
2023-01-06T00:58:23.504Z,5.5
2023-01-06T00:59:23.473Z,5.5
2023-01-06T01:00:24.230Z,5.5
2023-01-06T01:01:26.475Z,5.5
2023-01-06T01:02:28.480Z,5.5
2023-01-06T01:03:30.270Z,5.5
2023-01-06T01:04:33.212Z,5.5
2023-01-06T01:05:35.222Z,5.5
2023-01-06T01:06:37.224Z,5.4
2023-01-06T01:07:39.218Z,5.4
2023-01-06T01:08:46.451Z,5.4
2023-01-06T01:09:43.255Z,5.5
2023-01-06T01:10:46.241Z,5.5
2023-01-06T01:11:50.224Z,5.5
2023-01-06T01:12:52.236Z,5.6
2023-01-06T01:13:55.234Z,5.6
2023-01-06T01:14:57.238Z,5.6
2023-01-06T01:15:59.284Z,5.6
2023-01-06T01:17:01.312Z,5.5
2023-01-06T01:18:03.230Z,5.5
2023-01-06T01:19:05.224Z,5.5
2023-01-06T01:20:07.231Z,5.5
2023-01-06T01:21:09.233Z,5.5
2023-01-06T01:22:11.250Z,5.5
2023-01-06T01:23:13.248Z,5.6
2023-01-06T01:24:15.227Z,5.6
2023-01-06T01:25:17.228Z,5.5
2023-01-06T01:26:20.233Z,5.5
2023-01-06T01:27:22.233Z,5.5
2023-01-06T01:28:24.260Z,5.5
2023-01-06T01:29:26.239Z,5.5
2023-01-06T01:30:28.240Z,5.6
2023-01-06T01:31:31.237Z,5.6
2023-01-06T01:32:33.260Z,5.6
2023-01-06T01:33:36.283Z,5.5
2023-01-06T01:34:38.238Z,5.5
2023-01-06T01:35:41.232Z,5.5
2023-01-06T01:36:43.237Z,5.5
2023-01-06T01:37:46.252Z,5.5
2023-01-06T01:38:49.296Z,5.5
2023-01-06T01:39:51.244Z,5.5
2023-01-06T01:40:54.235Z,5.5
2023-01-06T01:41:56.248Z,5.5
2023-01-06T01:42:58.240Z,5.5
2023-01-06T01:44:01.244Z,5.5
2023-01-06T01:45:03.252Z,5.5
2023-01-06T01:46:06.304Z,5.5
2023-01-06T01:47:08.264Z,5.5
2023-01-06T01:48:10.240Z,5.5
2023-01-06T01:49:12.276Z,5.5
2023-01-06T01:50:14.238Z,5.4
2023-01-06T01:51:17.245Z,5.4
2023-01-06T01:52:19.264Z,5.4
2023-01-06T01:53:21.259Z,5.5
2023-01-06T01:54:23.249Z,5.4
2023-01-06T01:55:25.258Z,5.4
2023-01-06T01:56:27.279Z,5.4
2023-01-06T01:57:29.288Z,5.4
2023-01-06T01:58:31.247Z,5.4
2023-01-06T01:59:33.257Z,5.4
2023-01-06T02:00:35.261Z,5.4
2023-01-06T02:01:38.377Z,5.4
2023-01-06T02:02:40.361Z,5.4
2023-01-06T02:03:42.450Z,5.4
2023-01-06T02:04:44.273Z,5.4
2023-01-06T02:05:48.288Z,5.4
2023-01-06T02:06:51.265Z,5.4
2023-01-06T02:07:53.297Z,5.4
2023-01-06T02:08:55.262Z,5.4
2023-01-06T02:09:58.266Z,5.4
2023-01-06T02:11:01.209Z,5.4
2023-01-06T02:12:23.521Z,5.4
2023-01-06T02:13:23.545Z,5.4
2023-01-06T02:14:23.533Z,5.4
2023-01-06T02:15:23.567Z,5.4
2023-01-06T02:16:23.547Z,5.4
2023-01-06T02:17:23.529Z,5.4
2023-01-06T02:18:23.582Z,5.5
2023-01-06T02:19:23.535Z,5.5
2023-01-06T02:20:23.518Z,5.5
2023-01-06T02:21:23.515Z,5.5
2023-01-06T02:22:24.282Z,5.4
2023-01-06T02:23:26.299Z,5.4
2023-01-06T02:24:28.275Z,5.4
2023-01-06T02:25:30.276Z,5.4
2023-01-06T02:26:32.305Z,5.4
2023-01-06T02:27:34.291Z,5.4
2023-01-06T02:28:36.266Z,5.4
2023-01-06T02:29:38.281Z,5.4
2023-01-06T02:30:41.280Z,5.4
2023-01-06T02:31:43.280Z,5.4
2023-01-06T02:32:46.338Z,5.4
2023-01-06T02:33:49.274Z,5.4
2023-01-06T02:34:52.283Z,5.4
2023-01-06T02:35:54.286Z,5.4
2023-01-06T02:36:56.283Z,5.5
2023-01-06T02:37:58.326Z,5.5
2023-01-06T02:39:01.290Z,5.5
2023-01-06T02:40:03.287Z,5.5
2023-01-06T02:41:05.299Z,5.5
2023-01-06T02:42:07.303Z,5.5
2023-01-06T02:43:10.301Z,5.5
2023-01-06T02:44:12.278Z,5.5
2023-01-06T02:45:14.288Z,5.5
2023-01-06T02:46:18.333Z,5.5
2023-01-06T02:48:21.296Z,5.5
2023-01-06T02:49:23.298Z,5.6
2023-01-06T02:50:25.311Z,5.6
2023-01-06T02:51:27.285Z,5.6
2023-01-06T02:52:29.287Z,5.6
2023-01-06T02:53:31.361Z,5.6
2023-01-06T02:54:33.312Z,5.6
2023-01-06T02:55:35.305Z,5.6
2023-01-06T02:56:37.291Z,5.5
2023-01-06T02:57:39.303Z,5.5
2023-01-06T02:58:42.325Z,5.5
2023-01-06T02:59:44.291Z,5.5
2023-01-06T03:00:46.339Z,5.5
2023-01-06T03:01:49.397Z,5.5
2023-01-06T03:02:51.294Z,5.5
2023-01-06T03:03:54.321Z,5.5
2023-01-06T03:04:56.361Z,5.5
2023-01-06T03:05:58.299Z,5.5
2023-01-06T03:07:01.136Z,5.5
2023-01-06T03:08:02.305Z,5.5
2023-01-06T03:09:04.357Z,5.4
2023-01-06T03:10:06.313Z,5.5
2023-01-06T03:11:08.319Z,5.5
2023-01-06T03:12:10.299Z,5.4
2023-01-06T03:13:12.321Z,5.4
2023-01-06T03:14:14.319Z,5.5
2023-01-06T03:15:17.329Z,5.5
2023-01-06T03:16:19.339Z,5.5
2023-01-06T03:17:21.336Z,5.6
2023-01-06T03:18:23.311Z,5.6
2023-01-06T03:19:25.346Z,5.6
2023-01-06T03:20:28.311Z,5.6
2023-01-06T03:21:30.307Z,5.6
2023-01-06T03:22:32.352Z,5.6
2023-01-06T03:23:34.357Z,5.6
2023-01-06T03:24:37.324Z,5.6
2023-01-06T03:25:39.326Z,5.6
2023-01-06T03:26:42.323Z,5.6
2023-01-06T03:27:46.387Z,5.6
2023-01-06T03:28:49.318Z,5.6
2023-01-06T03:29:51.319Z,5.6
2023-01-06T03:30:53.324Z,5.5
2023-01-06T03:31:55.335Z,5.5
2023-01-06T03:32:57.363Z,5.5
2023-01-06T03:33:59.377Z,5.5
2023-01-06T03:35:01.303Z,5.5
2023-01-06T03:36:03.334Z,5.5
2023-01-06T03:37:06.326Z,5.5
2023-01-06T03:38:08.310Z,5.5
2023-01-06T03:39:11.324Z,5.5
2023-01-06T03:40:13.372Z,5.5
2023-01-06T03:41:16.357Z,5.5
2023-01-06T03:42:31.479Z,5.5
2023-01-06T03:43:20.336Z,5.6
2023-01-06T03:44:22.331Z,5.6
2023-01-06T03:45:24.333Z,5.6
2023-01-06T03:46:27.485Z,5.6
2023-01-06T03:47:29.338Z,5.6
2023-01-06T03:48:31.324Z,5.6
2023-01-06T03:49:33.366Z,5.6
2023-01-06T03:50:35.328Z,5.5
2023-01-06T03:51:37.324Z,5.5
2023-01-06T03:52:39.347Z,5.5
2023-01-06T03:53:41.357Z,5.5
2023-01-06T03:54:43.330Z,5.6
2023-01-06T03:55:46.359Z,5.6
2023-01-06T03:56:49.332Z,5.6
2023-01-06T03:57:51.343Z,5.6
2023-01-06T03:58:53.435Z,5.5
2023-01-06T03:59:55.342Z,5.5
2023-01-06T04:00:58.395Z,5.5
2023-01-06T04:02:01.197Z,5.5
2023-01-06T04:03:02.343Z,5.5
2023-01-06T04:04:04.418Z,5.6
2023-01-06T04:05:06.354Z,5.6
2023-01-06T04:06:08.358Z,5.5
2023-01-06T04:07:11.394Z,5.5
2023-01-06T04:08:13.339Z,5.5
2023-01-06T04:09:15.346Z,5.5
2023-01-06T04:10:17.362Z,5.5
2023-01-06T04:11:20.352Z,5.5
2023-01-06T04:12:22.368Z,5.5
2023-01-06T04:14:26.378Z,5.6
2023-01-06T04:15:28.340Z,5.6
2023-01-06T04:16:31.411Z,5.5
2023-01-06T04:17:33.411Z,5.6
2023-01-06T04:18:35.363Z,5.6
2023-01-06T04:19:37.377Z,5.6
2023-01-06T04:20:39.348Z,5.6
2023-01-06T04:21:41.360Z,5.6
2023-01-06T04:22:43.416Z,5.6
2023-01-06T04:23:47.359Z,5.7
2023-01-06T04:24:49.353Z,5.7
2023-01-06T04:25:52.361Z,5.7
2023-01-06T04:26:54.361Z,5.7
2023-01-06T04:27:57.376Z,5.7
2023-01-06T04:28:59.356Z,5.7
2023-01-06T04:30:01.354Z,5.7
2023-01-06T04:31:03.374Z,5.7
2023-01-06T04:32:06.375Z,5.8
2023-01-06T04:33:08.423Z,5.8
2023-01-06T04:34:10.422Z,5.9
2023-01-06T04:35:13.350Z,5.9
2023-01-06T04:36:15.374Z,6
2023-01-06T04:37:17.644Z,6
2023-01-06T04:38:19.398Z,6.1
2023-01-06T04:39:21.385Z,6.1
2023-01-06T04:40:24.370Z,6.2
2023-01-06T04:41:26.359Z,6.2
2023-01-06T04:42:28.371Z,6.2
2023-01-06T04:43:30.381Z,6.2
2023-01-06T04:44:32.372Z,6.2
2023-01-06T04:45:34.466Z,6.2
2023-01-06T04:46:36.374Z,6.2
2023-01-06T04:47:38.394Z,6.2
2023-01-06T04:48:40.391Z,6.2
2023-01-06T04:49:42.371Z,6.2
2023-01-06T04:50:44.397Z,6.2
2023-01-06T04:51:46.442Z,6.2
2023-01-06T04:52:49.394Z,6.3
2023-01-06T04:53:51.380Z,6.2
2023-01-06T04:54:54.389Z,6.2
2023-01-06T04:55:56.377Z,6.2
2023-01-06T04:56:58.377Z,6.2
2023-01-06T04:58:01.150Z,6.2
2023-01-06T04:59:02.390Z,6.2
2023-01-06T05:00:04.430Z,6.2
2023-01-06T05:01:06.494Z,6.2
2023-01-06T05:02:09.380Z,6.2
2023-01-06T05:03:12.391Z,6.2
2023-01-06T05:04:14.528Z,6.2
2023-01-06T05:05:17.403Z,6.2
2023-01-06T05:06:19.395Z,6.2
2023-01-06T05:07:22.390Z,6.2
2023-01-06T05:08:24.383Z,6.2
2023-01-06T05:09:26.435Z,6.2
2023-01-06T05:10:28.383Z,6.2
2023-01-06T05:11:30.398Z,6.2
2023-01-06T05:12:33.393Z,6.2
2023-01-06T05:13:35.417Z,6.2
2023-01-06T05:14:37.427Z,6.2
2023-01-06T05:15:39.394Z,6.2
2023-01-06T05:16:41.470Z,6.2
2023-01-06T05:17:43.445Z,6.2
2023-01-06T05:18:46.408Z,6.2
2023-01-06T05:19:49.436Z,6.2
2023-01-06T05:20:51.401Z,6.2
2023-01-06T05:21:53.392Z,6.2
2023-01-06T05:22:55.405Z,6.3
2023-01-06T05:23:57.422Z,6.3
2023-01-06T05:25:01.195Z,6.3
2023-01-06T05:26:02.403Z,6.3
2023-01-06T05:27:05.393Z,6.3
2023-01-06T05:28:08.443Z,6.2
2023-01-06T05:29:10.398Z,6.2
2023-01-06T05:30:12.412Z,6.2
2023-01-06T05:31:15.475Z,6.2
2023-01-06T05:32:17.411Z,6.2
2023-01-06T05:33:19.451Z,6.2
2023-01-06T05:34:21.412Z,6.3
2023-01-06T05:35:23.493Z,6.2
2023-01-06T05:36:25.439Z,6.2
2023-01-06T05:37:27.416Z,6.2
2023-01-06T05:38:29.402Z,6.2
2023-01-06T05:39:31.412Z,6.3
2023-01-06T05:40:33.408Z,6.3
2023-01-06T05:41:35.466Z,6.3
2023-01-06T05:42:37.414Z,6.3
2023-01-06T05:43:39.422Z,6.3
2023-01-06T05:44:42.415Z,6.3
2023-01-06T05:45:44.461Z,6.3
2023-01-06T05:46:46.446Z,6.3
2023-01-06T05:47:50.434Z,6.3
2023-01-06T05:48:53.421Z,6.3
2023-01-06T05:49:55.412Z,6.3
2023-01-06T05:50:58.425Z,6.3
2023-01-06T05:52:01.179Z,6.3
2023-01-06T05:53:02.459Z,6.3
2023-01-06T05:54:04.414Z,6.3
2023-01-06T05:55:06.416Z,6.3
2023-01-06T05:56:08.417Z,6.3
2023-01-06T05:57:10.420Z,6.3
2023-01-06T05:58:12.456Z,6.3
2023-01-06T05:59:14.432Z,6.3
2023-01-06T06:00:16.415Z,6.3
2023-01-06T06:01:18.460Z,6.3
2023-01-06T06:02:20.479Z,6.4
2023-01-06T06:03:22.473Z,6.4
2023-01-06T06:04:25.447Z,6.4
2023-01-06T06:05:27.442Z,6.4
2023-01-06T06:06:29.465Z,6.4
2023-01-06T06:07:31.457Z,6.3
2023-01-06T06:08:33.623Z,6.3
2023-01-06T06:09:36.449Z,6.3
2023-01-06T06:10:38.424Z,6.3
2023-01-06T06:11:40.428Z,6.3
2023-01-06T06:12:42.429Z,6.3
2023-01-06T06:13:44.705Z,6.4
2023-01-06T06:14:46.450Z,6.4
2023-01-06T06:15:49.435Z,6.3
2023-01-06T06:16:51.495Z,6.3
2023-01-06T06:17:53.434Z,6.3
2023-01-06T06:18:55.486Z,6.3
2023-01-06T06:19:57.438Z,6.3
2023-01-06T06:20:59.429Z,6.2
2023-01-06T06:22:01.444Z,6.2
2023-01-06T06:23:03.449Z,6.2
2023-01-06T06:24:05.473Z,6.2
2023-01-06T06:25:07.439Z,6.2
2023-01-06T06:26:10.441Z,6.2
2023-01-06T06:27:12.447Z,6.2
2023-01-06T06:28:14.470Z,6.2
2023-01-06T06:29:16.476Z,6.2
2023-01-06T06:30:18.435Z,6.3
2023-01-06T06:31:20.631Z,6.2
2023-01-06T06:32:22.451Z,6.2
2023-01-06T06:33:24.434Z,6.2
2023-01-06T06:34:26.469Z,6.2
2023-01-06T06:35:28.450Z,6.2
2023-01-06T06:37:32.464Z,6.2
2023-01-06T06:38:35.452Z,6.2
2023-01-06T06:39:38.476Z,6.2
2023-01-06T06:40:40.455Z,6.2
2023-01-06T06:41:42.460Z,6.1
2023-01-06T06:42:44.498Z,6.2
2023-01-06T06:43:48.491Z,6.2
2023-01-06T06:44:52.077Z,6.3
2023-01-06T06:45:53.613Z,6.3
2023-01-06T06:46:55.463Z,6.3
2023-01-06T06:47:58.452Z,6.3
2023-01-06T06:49:01.206Z,6.3
2023-01-06T06:50:02.462Z,6.3
2023-01-06T06:51:23.703Z,6.2
2023-01-06T06:52:23.729Z,6.2
2023-01-06T06:53:23.725Z,6.2
2023-01-06T06:54:23.742Z,6.2
2023-01-06T06:55:23.703Z,6.2
2023-01-06T06:56:23.742Z,6.1
2023-01-06T06:57:23.721Z,6.1
2023-01-06T06:58:23.769Z,6.1
2023-01-06T06:59:23.732Z,6.1
2023-01-06T07:00:25.474Z,6.1
2023-01-06T07:01:27.626Z,6.1
2023-01-06T07:03:32.481Z,6.2
2023-01-06T07:05:36.473Z,6.1
2023-01-06T07:06:39.473Z,6.1
2023-01-06T07:08:43.507Z,6.1
2023-01-06T07:09:46.496Z,6.2
2023-01-06T07:10:49.481Z,6.2
2023-01-06T07:11:51.467Z,6.1
2023-01-06T07:12:53.471Z,6.2
2023-01-06T07:13:55.515Z,6.1
2023-01-06T07:14:57.476Z,6.1
2023-01-06T07:15:59.561Z,6.2
2023-01-06T07:17:01.478Z,6.2
2023-01-06T07:18:03.483Z,6.2
2023-01-06T07:19:05.521Z,6.2
2023-01-06T07:20:07.495Z,6.2
2023-01-06T07:21:10.493Z,6.2
2023-01-06T07:22:13.482Z,6.2
2023-01-06T07:23:15.474Z,6.2
2023-01-06T07:24:17.534Z,6.2
2023-01-06T07:25:19.538Z,6.2
2023-01-06T07:26:22.495Z,6.2
2023-01-06T07:27:24.550Z,6.2
2023-01-06T07:28:27.498Z,6.2
2023-01-06T07:29:29.531Z,6.2
2023-01-06T07:31:23.838Z,6.3
2023-01-06T07:32:23.746Z,6.3
2023-01-06T07:33:23.771Z,6.3
2023-01-06T07:34:23.785Z,6.3
2023-01-06T07:35:23.736Z,6.3
2023-01-06T07:36:23.748Z,6.3
2023-01-06T07:37:23.749Z,6.3
2023-01-06T07:38:23.747Z,6.3
2023-01-06T07:39:23.746Z,6.3
2023-01-06T07:40:23.734Z,6.3
2023-01-06T07:41:23.743Z,6.3
2023-01-06T07:43:01.224Z,6.3
2023-01-06T07:44:02.500Z,6.3
2023-01-06T07:46:06.591Z,6.3
2023-01-06T07:47:08.492Z,6.3
2023-01-06T07:48:10.530Z,6.3
2023-01-06T07:49:12.574Z,6.3
2023-01-06T07:50:14.503Z,6.3
2023-01-06T07:51:16.512Z,6.4
2023-01-06T07:52:19.498Z,6.4
2023-01-06T07:53:21.514Z,6.4
2023-01-06T07:54:24.511Z,6.4
2023-01-06T07:55:26.508Z,6.5
2023-01-06T07:56:28.501Z,6.5
2023-01-06T07:57:30.508Z,6.5
2023-01-06T07:59:34.506Z,6.5
2023-01-06T08:00:36.523Z,6.5
2023-01-06T08:01:39.667Z,6.5
2023-01-06T08:02:42.597Z,6.5
2023-01-06T08:03:44.521Z,6.5
2023-01-06T08:04:46.550Z,6.4
2023-01-06T08:05:50.513Z,6.4
2023-01-06T08:06:52.538Z,6.4
2023-01-06T08:07:54.900Z,6.3
2023-01-06T08:08:56.522Z,6.4
2023-01-06T08:09:59.518Z,6.4
2023-01-06T08:11:01.519Z,6.5
2023-01-06T08:12:03.515Z,6.5
2023-01-06T08:13:06.658Z,6.5
2023-01-06T08:14:08.526Z,6.5
2023-01-06T08:15:10.534Z,6.5
2023-01-06T08:16:12.549Z,6.4
2023-01-06T08:17:15.520Z,6.4
2023-01-06T08:18:17.541Z,6.5
2023-01-06T08:19:19.534Z,6.4
2023-01-06T08:20:22.535Z,6.4
2023-01-06T08:21:24.548Z,6.4
2023-01-06T08:22:26.551Z,6.5
2023-01-06T08:23:28.561Z,6.5
2023-01-06T08:24:31.841Z,6.4
2023-01-06T08:25:33.558Z,6.4
2023-01-06T08:26:35.552Z,6.4
2023-01-06T08:27:37.519Z,6.4
2023-01-06T08:28:39.572Z,6.4
2023-01-06T08:29:41.509Z,6.5
2023-01-06T08:30:43.533Z,6.5
2023-01-06T08:31:46.588Z,6.5
2023-01-06T08:32:49.556Z,6.5
2023-01-06T08:33:51.546Z,6.6
2023-01-06T08:34:53.532Z,6.6
2023-01-06T08:35:56.530Z,6.6
2023-01-06T08:36:59.573Z,6.6
2023-01-06T08:38:01.530Z,6.6
2023-01-06T08:39:16.680Z,6.6
2023-01-06T08:41:08.556Z,6.6
2023-01-06T08:42:10.557Z,6.6
2023-01-06T08:43:13.546Z,6.6
2023-01-06T08:44:15.544Z,6.7
2023-01-06T08:45:18.592Z,6.7
2023-01-06T08:46:20.618Z,6.7
2023-01-06T08:47:22.594Z,6.7
2023-01-06T08:48:24.555Z,6.7
2023-01-06T08:49:26.540Z,6.7
2023-01-06T08:50:29.555Z,6.7
2023-01-06T08:51:31.532Z,6.7
2023-01-06T08:52:34.551Z,6.7
2023-01-06T08:53:37.574Z,6.7
2023-01-06T08:54:39.591Z,6.8
2023-01-06T08:55:41.559Z,6.8
2023-01-06T08:56:43.607Z,6.8
2023-01-06T08:57:46.659Z,6.8
2023-01-06T08:58:49.627Z,6.9
2023-01-06T08:59:51.547Z,6.9
2023-01-06T09:00:53.536Z,7
2023-01-06T09:01:55.736Z,7
2023-01-06T09:02:57.571Z,7.1
2023-01-06T09:03:59.647Z,7.1
2023-01-06T09:05:02.668Z,7.1
2023-01-06T09:06:04.638Z,7.1
2023-01-06T09:07:06.556Z,7.2
2023-01-06T09:08:08.552Z,7.2
2023-01-06T09:09:10.607Z,7.2
2023-01-06T09:10:12.554Z,7.2
2023-01-06T09:11:14.648Z,7.3
2023-01-06T09:12:16.549Z,7.3
2023-01-06T09:13:19.554Z,7.4
2023-01-06T09:14:21.557Z,7.5
2023-01-06T09:15:23.587Z,7.5
2023-01-06T09:16:25.619Z,7.6
2023-01-06T09:17:27.554Z,7.6
2023-01-06T09:18:29.554Z,7.7
2023-01-06T09:19:31.560Z,7.7
2023-01-06T09:20:33.582Z,7.7
2023-01-06T09:21:35.584Z,7.8
2023-01-06T09:22:38.577Z,7.8
2023-01-06T09:23:40.572Z,7.8
2023-01-06T09:24:43.597Z,7.9
2023-01-06T09:25:46.636Z,7.8
2023-01-06T09:26:49.582Z,7.9
2023-01-06T09:27:51.587Z,7.9
2023-01-06T09:28:53.585Z,7.9
2023-01-06T09:29:55.571Z,7.9
2023-01-06T09:30:57.655Z,8
2023-01-06T09:31:59.574Z,8
2023-01-06T09:33:02.592Z,8
2023-01-06T09:34:04.574Z,8
2023-01-06T09:35:06.581Z,8
2023-01-06T09:36:08.590Z,8
2023-01-06T09:37:10.587Z,8
2023-01-06T09:38:12.588Z,8
2023-01-06T09:39:15.588Z,8
2023-01-06T09:40:16.616Z,8
2023-01-06T09:41:18.583Z,8
2023-01-06T09:42:20.586Z,8.1
2023-01-06T09:43:22.857Z,8.1
2023-01-06T09:44:25.584Z,8.1
2023-01-06T09:45:27.575Z,8.2
2023-01-06T09:46:29.609Z,8.2
2023-01-06T09:47:31.570Z,8.2
2023-01-06T09:48:33.617Z,8.2
2023-01-06T09:49:37.633Z,8.3
2023-01-06T09:50:39.582Z,8.3
2023-01-06T09:51:41.583Z,8.3
2023-01-06T09:52:44.621Z,8.3
2023-01-06T09:53:46.601Z,8.3
2023-01-06T09:54:49.600Z,8.3
2023-01-06T09:55:52.639Z,8.3
2023-01-06T09:56:22.285Z,8.3
2023-01-06T09:56:54.584Z,8.3
2023-01-06T09:57:58.173Z,8.4
2023-01-06T09:58:58.600Z,8.4
2023-01-06T10:00:01.157Z,8.4
2023-01-06T10:01:02.613Z,8.3
2023-01-06T10:02:04.711Z,8.3
2023-01-06T10:03:06.625Z,8.3
2023-01-06T10:04:09.671Z,8.3
2023-01-06T10:05:11.619Z,8.3
2023-01-06T10:06:13.684Z,8.4
2023-01-06T10:07:15.610Z,8.4
2023-01-06T10:08:17.646Z,8.4
2023-01-06T10:09:19.605Z,8.4
2023-01-06T10:10:22.370Z,8.4
2023-01-06T10:11:23.595Z,8.4
2023-01-06T10:12:26.622Z,8.4
2023-01-06T10:13:28.627Z,8.4
2023-01-06T10:14:30.635Z,8.4
2023-01-06T10:15:32.592Z,8.4
2023-01-06T10:16:35.718Z,8.5
2023-01-06T10:17:37.667Z,8.5
2023-01-06T10:18:39.635Z,8.5
2023-01-06T10:19:41.635Z,8.5
2023-01-06T10:20:43.604Z,8.5
2023-01-06T10:21:46.626Z,8.5
2023-01-06T10:22:49.600Z,8.4
2023-01-06T10:23:51.620Z,8.5
2023-01-06T10:24:53.674Z,8.5
2023-01-06T10:25:56.607Z,8.5
2023-01-06T10:26:58.618Z,8.5
2023-01-06T10:28:01.609Z,8.5
2023-01-06T10:29:03.618Z,8.6
2023-01-06T10:31:07.665Z,8.6
2023-01-06T10:32:09.620Z,8.6
2023-01-06T10:33:12.655Z,8.6
2023-01-06T10:34:14.627Z,8.6
2023-01-06T10:35:16.617Z,8.6
2023-01-06T10:36:19.638Z,8.6
2023-01-06T10:37:21.630Z,8.6
2023-01-06T10:38:24.628Z,8.6
2023-01-06T10:39:26.641Z,8.6
2023-01-06T10:40:28.631Z,8.6
2023-01-06T10:42:32.713Z,8.6
2023-01-06T10:43:34.647Z,8.7
2023-01-06T10:44:36.626Z,8.7
2023-01-06T10:45:40.627Z,8.7
2023-01-06T10:46:42.660Z,8.7
2023-01-06T10:47:44.666Z,8.7
2023-01-06T10:48:46.633Z,8.8
2023-01-06T10:49:49.681Z,8.8
2023-01-06T10:50:52.124Z,8.8
2023-01-06T10:51:53.659Z,8.8
2023-01-06T10:52:56.657Z,8.8
2023-01-06T10:53:58.638Z,8.8
2023-01-06T10:55:01.165Z,8.8
2023-01-06T10:56:02.651Z,8.8
2023-01-06T10:57:04.649Z,8.7
2023-01-06T10:58:06.670Z,8.7
2023-01-06T10:59:09.626Z,8.7
2023-01-06T11:00:11.631Z,8.7
2023-01-06T11:01:13.768Z,8.7
2023-01-06T11:02:15.707Z,8.6
2023-01-06T11:03:32.746Z,8.6
2023-01-06T11:04:19.635Z,8.6
2023-01-06T11:05:21.679Z,8.6
2023-01-06T11:06:23.648Z,8.6
2023-01-06T11:07:25.701Z,8.6
2023-01-06T11:08:28.644Z,8.6
2023-01-06T11:09:30.685Z,8.6
2023-01-06T11:10:33.643Z,8.6
2023-01-06T11:11:35.650Z,8.6
2023-01-06T11:12:37.631Z,8.6
2023-01-06T11:13:39.642Z,8.5
2023-01-06T11:14:41.720Z,8.6
2023-01-06T11:15:58.756Z,8.6
2023-01-06T11:16:46.700Z,8.6
2023-01-06T11:17:49.640Z,8.5
2023-01-06T11:18:51.687Z,8.5
2023-01-06T11:19:53.648Z,8.5
2023-01-06T11:20:55.655Z,8.5
2023-01-06T11:21:57.646Z,8.5
2023-01-06T11:22:59.650Z,8.4
2023-01-06T11:24:01.672Z,8.4
2023-01-06T11:25:03.643Z,8.4
2023-01-06T11:26:23.990Z,8.4
2023-01-06T11:27:23.954Z,8.5
2023-01-06T11:28:23.904Z,8.5
2023-01-06T11:29:23.890Z,8.5
2023-01-06T11:31:23.952Z,8.5
2023-01-06T11:32:24.002Z,8.5
2023-01-06T11:33:23.914Z,8.5
2023-01-06T11:34:24.658Z,8.6
2023-01-06T11:36:41.210Z,8.6
2023-01-06T11:40:23.955Z,8.6
2023-01-06T11:41:23.913Z,8.6
2023-01-06T11:42:23.907Z,8.6
2023-01-06T11:43:23.937Z,8.7
2023-01-06T11:44:23.921Z,8.7
2023-01-06T11:45:23.922Z,8.7
2023-01-06T11:47:06.108Z,8.7
2023-01-06T11:48:08.157Z,8.7
2023-01-06T11:49:10.121Z,8.7
2023-01-06T11:50:12.156Z,8.7
2023-01-06T11:51:15.141Z,8.7
2023-01-06T11:52:17.113Z,8.7
2023-01-06T11:53:19.130Z,8.7
2023-01-06T11:54:21.119Z,8.7
2023-01-06T11:56:25.135Z,8.6
2023-01-06T11:57:27.113Z,8.6
2023-01-06T11:58:29.193Z,8.6
2023-01-06T11:59:31.111Z,8.6
2023-01-06T12:00:33.125Z,8.6
2023-01-06T12:01:35.228Z,8.6
2023-01-06T12:02:37.138Z,8.6
2023-01-06T12:03:39.207Z,8.6
2023-01-06T12:04:41.129Z,8.6
2023-01-06T12:05:43.132Z,8.5
2023-01-06T12:06:46.135Z,8.5
2023-01-06T12:07:49.118Z,8.5
2023-01-06T12:08:51.128Z,8.5
2023-01-06T12:09:53.148Z,8.5
2023-01-06T12:10:55.132Z,8.5
2023-01-06T12:11:57.124Z,8.4
2023-01-06T12:12:59.398Z,8.4
2023-01-06T12:14:16.264Z,8.4
2023-01-06T12:15:03.672Z,8.4
2023-01-06T12:16:05.178Z,8.4
2023-01-06T12:17:07.235Z,8.4
2023-01-06T12:18:09.142Z,8.4
2023-01-06T12:19:11.139Z,8.4
2023-01-06T12:20:13.452Z,8.4
2023-01-06T12:21:23.996Z,8.4
2023-01-06T12:23:24.002Z,8.4
2023-01-06T12:24:23.954Z,8.4
2023-01-06T12:26:24.729Z,8.4
2023-01-06T12:27:23.988Z,8.4
2023-01-06T12:28:24.050Z,8.4
2023-01-06T12:30:24.021Z,8.4
2023-01-06T12:31:24.008Z,8.4
2023-01-06T12:33:24.007Z,8.4
2023-01-06T12:34:24.039Z,8.4
2023-01-06T12:35:24.126Z,8.4
2023-01-06T12:36:23.971Z,8.4
2023-01-06T12:37:23.959Z,8.4
2023-01-06T12:38:23.957Z,8.4
2023-01-06T12:39:23.961Z,8.4
2023-01-06T12:40:24.000Z,8.4
2023-01-06T12:41:23.952Z,8.4
2023-01-06T12:42:23.950Z,8.4
2023-01-06T12:43:24.024Z,8.4
2023-01-06T12:44:23.973Z,8.4
2023-01-06T12:45:23.961Z,8.3
2023-01-06T12:46:24.122Z,8.4
2023-01-06T12:47:23.981Z,8.4
2023-01-06T12:48:24.037Z,8.4
2023-01-06T12:49:23.968Z,8.3
2023-01-06T12:50:23.991Z,8.3
2023-01-06T12:51:23.969Z,8.3
2023-01-06T12:52:23.973Z,8.3
2023-01-06T12:53:24.316Z,8.3
2023-01-06T12:54:26.169Z,8.3
2023-01-06T12:55:28.176Z,8.3
2023-01-06T12:56:31.179Z,8.3
2023-01-06T12:57:33.158Z,8.3
2023-01-06T12:58:35.202Z,8.3
2023-01-06T12:59:37.172Z,8.3
2023-01-06T13:00:40.187Z,8.3
2023-01-06T13:01:42.263Z,8.2
2023-01-06T13:02:44.164Z,8.3
2023-01-06T13:03:46.260Z,8.3
2023-01-06T13:04:50.186Z,8.3
2023-01-06T13:05:52.178Z,8.3
2023-01-06T13:06:55.184Z,8.3
2023-01-06T13:07:57.164Z,8.3
2023-01-06T13:08:59.233Z,8.3
2023-01-06T13:10:01.179Z,8.3
2023-01-06T13:11:03.161Z,8.3
2023-01-06T13:12:05.170Z,8.3
2023-01-06T13:13:07.167Z,8.2
2023-01-06T13:14:09.214Z,8.2
2023-01-06T13:15:12.216Z,8.2
2023-01-06T13:16:14.253Z,8.2
2023-01-06T13:17:16.183Z,8.3
2023-01-06T13:18:18.183Z,8.3
2023-01-06T13:19:20.186Z,8.2
2023-01-06T13:20:22.204Z,8.2
2023-01-06T13:21:24.344Z,8.3
2023-01-06T13:22:26.190Z,8.2
2023-01-06T13:23:28.173Z,8.2
2023-01-06T13:24:30.234Z,8.2
2023-01-06T13:25:32.189Z,8.2
2023-01-06T13:26:34.169Z,8.2
2023-01-06T13:27:37.215Z,8.2
2023-01-06T13:29:24.002Z,8.3
2023-01-06T13:30:24.022Z,8.2
2023-01-06T13:31:24.019Z,8.2
2023-01-06T13:32:24.000Z,8.2
2023-01-06T13:33:24.048Z,8.2
2023-01-06T13:34:23.994Z,8.2
2023-01-06T13:35:23.993Z,8.2
2023-01-06T13:36:23.993Z,8.2
2023-01-06T13:37:24.001Z,8.2
2023-01-06T13:38:24.031Z,8.2
2023-01-06T13:40:04.185Z,8.2
2023-01-06T13:42:08.225Z,8.2
2023-01-06T13:43:10.211Z,8.2
2023-01-06T13:44:12.199Z,8.1
2023-01-06T13:45:14.186Z,8.1
2023-01-06T13:47:18.231Z,8.1
2023-01-06T13:48:20.413Z,8.1
2023-01-06T13:49:22.196Z,8.1
2023-01-06T13:51:40.763Z,8
2023-01-06T13:52:29.196Z,8
2023-01-06T13:53:31.246Z,8
2023-01-06T13:54:33.200Z,8
2023-01-06T13:55:37.212Z,8
2023-01-06T13:56:40.392Z,8
2023-01-06T13:57:42.201Z,8
2023-01-06T13:58:44.230Z,8
2023-01-06T13:59:46.240Z,8
2023-01-06T14:00:49.201Z,8
2023-01-06T14:01:51.376Z,8
2023-01-06T14:02:53.265Z,8
2023-01-06T14:03:55.258Z,8
2023-01-06T14:04:57.191Z,8
2023-01-06T14:05:59.258Z,8
2023-01-06T14:07:01.215Z,8
2023-01-06T14:08:03.208Z,8
2023-01-06T14:09:08.202Z,7.9
2023-01-06T14:10:10.211Z,7.9
2023-01-06T14:11:12.197Z,7.9
2023-01-06T14:12:14.225Z,7.9
2023-01-06T14:13:16.250Z,7.9
2023-01-06T14:14:18.206Z,7.9
2023-01-06T14:15:20.272Z,7.9
2023-01-06T14:16:22.224Z,7.9
2023-01-06T14:17:24.335Z,7.9
2023-01-06T14:18:28.884Z,7.9
2023-01-06T14:19:29.232Z,7.9
2023-01-06T14:20:31.239Z,7.9
2023-01-06T14:21:34.214Z,7.9
2023-01-06T14:22:36.284Z,7.9
2023-01-06T14:23:38.248Z,7.9
2023-01-06T14:24:40.220Z,7.9
2023-01-06T14:25:43.266Z,7.9
2023-01-06T14:26:46.261Z,7.9
2023-01-06T14:28:51.240Z,7.8
2023-01-06T14:29:53.225Z,7.8
2023-01-06T14:30:55.329Z,7.7
2023-01-06T14:31:57.249Z,7.8
2023-01-06T14:32:59.278Z,7.8
2023-01-06T14:34:01.247Z,7.8
2023-01-06T14:35:03.267Z,7.8
2023-01-06T14:36:05.221Z,7.8
2023-01-06T14:37:07.233Z,7.8
2023-01-06T14:38:09.347Z,7.7
2023-01-06T14:39:11.257Z,7.8
2023-01-06T14:41:16.226Z,7.7
2023-01-06T14:42:18.274Z,7.7
2023-01-06T14:45:24.551Z,7.7
2023-01-06T14:46:27.279Z,7.7
2023-01-06T14:47:30.259Z,7.7
2023-01-06T14:48:32.239Z,7.6